Time;durP1;ratioP1;P1;durP2;ratioP2;P2;SDS_P1;SDS_P2;PMS_P1;PMS_P2;Temp;Humidity;BMP_temperature;BMP_pressure;BME280_temperature;BME280_humidity;BME280_pressure;Samples;Min_cycle;Max_cycle;Signal;HPM_P1;HPM_P2
2022/05/19 00:03:25;;;;;;;24.73;17.40;;;16.20;99.90;;;;;;5087693;28;20123;-74
2022/05/19 00:05:50;;;;;;;27.85;17.73;;;16.20;99.90;;;;;;5068846;28;20124;-73
2022/05/19 00:08:16;;;;;;;24.48;18.25;;;16.20;99.90;;;;;;5061972;28;20094;-74
2022/05/19 00:10:42;;;;;;;26.27;18.85;;;16.20;99.90;;;;;;5068957;28;20966;-74
2022/05/19 00:13:08;;;;;;;25.65;16.83;;;16.40;99.90;;;;;;5082222;28;20105;-73
2022/05/19 00:15:34;;;;;;;28.40;18.40;;;16.20;99.90;;;;;;5087314;28;20059;-74
2022/05/19 00:17:59;;;;;;;25.25;17.92;;;16.20;99.90;;;;;;5070587;28;20385;-73
2022/05/19 00:20:25;;;;;;;24.23;17.63;;;16.20;99.90;;;;;;5083134;28;20046;-74
2022/05/19 00:22:50;;;;;;;26.13;19.08;;;16.20;99.90;;;;;;5087048;28;20115;-74
2022/05/19 00:25:16;;;;;;;28.75;18.45;;;16.30;99.90;;;;;;5069260;28;20032;-74
2022/05/19 00:27:42;;;;;;;33.33;20.00;;;16.10;99.90;;;;;;5068334;28;20071;-74
2022/05/19 00:30:11;;;;;;;32.22;21.40;;;16.20;99.90;;;;;;5066753;28;20048;-74
2022/05/19 00:32:36;;;;;;;26.13;19.42;;;16.20;99.90;;;;;;5071660;28;20341;-74
2022/05/19 00:35:02;;;;;;;32.42;20.80;;;16.10;99.90;;;;;;5072265;28;20052;-74
2022/05/19 00:37:28;;;;;;;31.77;21.98;;;16.10;99.90;;;;;;5089870;28;20071;-73
2022/05/19 00:39:53;;;;;;;29.35;20.35;;;16.20;99.90;;;;;;5090971;28;20082;-74
2022/05/19 00:45:04;;;;;;;37.15;23.40;;;16.20;99.90;;;;;;5081983;28;20048;-74
2022/05/19 00:47:53;;;;;;;38.72;22.95;;;16.10;99.90;;;;;;5085532;28;20075;-74
2022/05/19 00:50:21;;;;;;;39.63;23.38;;;16.20;99.90;;;;;;5087122;28;20128;-74
2022/05/19 00:52:49;;;;;;;35.03;24.73;;;16.10;99.90;;;;;;5065568;28;20036;-75
2022/05/19 00:55:23;;;;;;;34.30;22.98;;;16.10;99.90;;;;;;5082147;28;20139;-74
2022/05/19 00:58:08;;;;;;;39.42;27.00;;;16.10;99.90;;;;;;5052597;28;20116;-74
2022/05/19 01:00:34;;;;;;;36.78;26.38;;;16.10;99.90;;;;;;5069264;28;20066;-74
2022/05/19 01:03:01;;;;;;;38.22;25.83;;;16.10;99.90;;;;;;5070613;28;20041;-74
2022/05/19 01:05:44;;;;;;;40.08;25.83;;;16.00;99.90;;;;;;5043693;28;20449;-74
2022/05/19 01:08:16;;;;;;;38.38;28.00;;;16.10;99.90;;;;;;5024397;28;20128;-75
2022/05/19 01:10:44;;;;;;;43.58;28.60;;;16.10;99.90;;;;;;5061219;28;20044;-74
2022/05/19 01:13:11;;;;;;;38.13;27.30;;;16.10;99.90;;;;;;5048765;28;20067;-74
2022/05/19 01:15:40;;;;;;;39.28;28.20;;;16.00;99.90;;;;;;5047580;28;20040;-74
2022/05/19 01:18:07;;;;;;;41.22;28.30;;;16.00;99.90;;;;;;5066349;28;20519;-74
2022/05/19 01:20:34;;;;;;;35.58;26.23;;;16.00;99.90;;;;;;5047470;28;20052;-74
2022/05/19 01:23:44;;;;;;;42.10;28.88;;;16.00;99.90;;;;;;5067712;28;20037;-74
2022/05/19 01:26:27;;;;;;;41.85;28.55;;;15.90;99.90;;;;;;4981506;28;20401;-74
2022/05/19 01:28:55;;;;;;;36.92;25.60;;;15.90;99.90;;;;;;5055557;28;20040;-74
2022/05/19 01:31:37;;;;;;;38.08;26.88;;;15.90;99.90;;;;;;5052201;28;20040;-74
2022/05/19 01:34:06;;;;;;;38.05;27.08;;;15.90;99.90;;;;;;5052657;28;20042;-74
2022/05/19 01:36:35;;;;;;;35.85;27.77;;;15.90;99.90;;;;;;5063075;28;20543;-73
2022/05/19 01:39:26;;;;;;;39.65;28.83;;;15.90;99.90;;;;;;5053005;28;20123;-74
2022/05/19 01:42:30;;;;;;;46.42;31.17;;;15.90;99.90;;;;;;5054096;28;20049;-74
2022/05/19 01:45:33;;;;;;;40.08;28.60;;;15.90;99.90;;;;;;5048798;28;20063;-74
2022/05/19 01:48:24;;;;;;;42.33;30.13;;;15.90;99.90;;;;;;5049852;28;20071;-74
2022/05/19 01:51:08;;;;;;;42.13;30.45;;;15.90;99.90;;;;;;5027793;28;20042;-74
2022/05/19 01:53:48;;;;;;;44.60;29.77;;;15.90;99.90;;;;;;5062107;28;20091;-74
2022/05/19 01:56:21;;;;;;;36.85;27.73;;;15.90;99.90;;;;;;5067136;28;20223;-74
2022/05/19 01:59:02;;;;;;;38.85;30.80;;;15.90;99.90;;;;;;5088147;28;20104;-74
2022/05/19 02:01:28;;;;;;;44.50;31.98;;;15.90;99.90;;;;;;5089302;28;20109;-74
2022/05/19 02:04:22;;;;;;;43.03;30.25;;;15.90;99.90;;;;;;5072927;28;20043;-74
2022/05/19 02:06:54;;;;;;;49.22;34.92;;;15.90;99.90;;;;;;5089647;28;20071;-74
2022/05/19 02:09:42;;;;;;;49.33;34.38;;;15.90;99.90;;;;;;5089293;28;20053;-74
2022/05/19 02:12:08;;;;;;;47.83;34.13;;;16.00;99.90;;;;;;5070361;28;20070;-74
2022/05/19 02:14:45;;;;;;;45.92;34.33;;;15.80;99.90;;;;;;5071823;28;20036;-73
2022/05/19 02:17:14;;;;;;;43.72;33.67;;;16.00;99.90;;;;;;5071108;28;20083;-73
2022/05/19 02:19:46;;;;;;;49.97;34.92;;;16.00;99.90;;;;;;5090673;28;20102;-74
2022/05/19 02:22:25;;;;;;;45.22;34.63;;;16.00;99.90;;;;;;5070693;28;20078;-74
2022/05/19 02:25:00;;;;;;;51.85;35.20;;;16.00;99.90;;;;;;5067955;28;20127;-74
2022/05/19 02:27:47;;;;;;;41.58;34.50;;;16.00;99.90;;;;;;5069469;28;20055;-74
2022/05/19 02:30:18;;;;;;;45.75;34.00;;;16.00;99.90;;;;;;5089277;28;20055;-75
2022/05/19 02:32:45;;;;;;;43.72;33.03;;;16.10;99.90;;;;;;5070760;28;20044;-75
2022/05/19 02:35:12;;;;;;;50.28;36.92;;;16.10;99.90;;;;;;5089337;28;20079;-74
2022/05/19 02:37:37;;;;;;;58.55;38.30;;;16.00;99.90;;;;;;5088275;28;20051;-74
2022/05/19 02:40:04;;;;;;;46.10;36.85;;;16.10;99.90;;;;;;5070041;28;20044;-75
2022/05/19 02:42:29;;;;;;;49.67;36.60;;;16.10;99.90;;;;;;5088437;28;20390;-74
2022/05/19 02:44:58;;;;;;;47.88;36.50;;;16.20;99.90;;;;;;5089117;28;20058;-75
2022/05/19 02:47:23;;;;;;;51.30;37.53;;;16.10;99.90;;;;;;5088362;28;20507;-74
2022/05/19 02:49:49;;;;;;;56.22;37.90;;;16.20;99.90;;;;;;5089653;28;20090;-74
2022/05/19 02:52:15;;;;;;;44.92;36.03;;;16.20;99.90;;;;;;5070199;28;20051;-74
2022/05/19 02:54:41;;;;;;;50.40;35.63;;;16.20;99.90;;;;;;5088641;28;20043;-74
2022/05/19 02:57:09;;;;;;;47.20;35.10;;;16.20;99.90;;;;;;5088823;28;20396;-75
2022/05/19 02:59:35;;;;;;;41.75;32.65;;;16.20;99.90;;;;;;5050304;28;20511;-75
2022/05/19 03:02:01;;;;;;;48.72;33.88;;;16.30;99.90;;;;;;5050250;28;20144;-74
2022/05/19 03:04:26;;;;;;;42.90;33.63;;;16.30;99.90;;;;;;5088977;28;20046;-74
2022/05/19 03:06:52;;;;;;;44.40;33.58;;;16.30;99.90;;;;;;5086685;28;20081;-75
2022/05/19 03:09:21;;;;;;;50.17;34.25;;;16.30;99.90;;;;;;5047412;28;20044;-75
2022/05/19 03:11:47;;;;;;;53.90;35.70;;;16.40;99.90;;;;;;5080656;28;20048;-74
2022/05/19 03:14:16;;;;;;;46.03;32.47;;;16.40;99.90;;;;;;5085285;28;20403;-74
2022/05/19 03:16:42;;;;;;;47.08;33.65;;;16.40;99.90;;;;;;5068098;28;20052;-74
2022/05/19 03:19:09;;;;;;;40.67;31.88;;;16.40;99.90;;;;;;5054278;28;20091;-75
2022/05/19 03:21:36;;;;;;;50.13;31.40;;;16.40;99.90;;;;;;5062392;28;20048;-75
2022/05/19 03:24:02;;;;;;;46.95;33.13;;;16.40;99.90;;;;;;5073193;28;20040;-75
2022/05/19 03:26:28;;;;;;;47.35;33.95;;;16.50;99.90;;;;;;5060537;28;20048;-74
2022/05/19 03:28:53;;;;;;;44.53;31.38;;;16.50;99.90;;;;;;5068439;28;20064;-75
2022/05/19 03:31:19;;;;;;;45.53;32.63;;;16.50;99.90;;;;;;5078205;28;20067;-74
2022/05/19 03:33:45;;;;;;;49.95;35.40;;;16.50;99.90;;;;;;5067518;28;20048;-74
2022/05/19 03:36:11;;;;;;;49.67;33.42;;;16.50;99.90;;;;;;5081542;28;20083;-74
2022/05/19 03:38:37;;;;;;;42.55;31.90;;;16.60;99.90;;;;;;5089589;28;20186;-74
2022/05/19 03:41:03;;;;;;;42.80;31.23;;;16.60;99.90;;;;;;5078658;28;20135;-75
2022/05/19 03:43:29;;;;;;;45.35;33.92;;;16.60;99.90;;;;;;5067981;28;20044;-74
2022/05/19 03:45:59;;;;;;;48.17;34.78;;;16.60;99.90;;;;;;5082470;28;20727;-75
2022/05/19 03:48:25;;;;;;;49.22;33.55;;;16.60;99.90;;;;;;5084819;28;20037;-74
2022/05/19 03:50:50;;;;;;;51.53;34.80;;;16.60;99.90;;;;;;5075522;28;20107;-74
2022/05/19 03:53:16;;;;;;;58.97;41.10;;;16.70;99.90;;;;;;5068789;28;20045;-74
2022/05/19 03:55:42;;;;;;;51.30;37.78;;;16.70;99.90;;;;;;5082517;28;20556;-74
2022/05/19 03:58:10;;;;;;;53.33;37.88;;;16.70;99.90;;;;;;5088726;28;20048;-74
2022/05/19 04:00:36;;;;;;;59.75;38.50;;;16.80;99.90;;;;;;5065231;28;20119;-74
2022/05/19 04:03:04;;;;;;;53.25;37.58;;;16.80;99.90;;;;;;5088878;28;20054;-74
2022/05/19 04:05:30;;;;;;;56.10;40.97;;;16.80;99.90;;;;;;5088034;28;20043;-75
2022/05/19 04:07:56;;;;;;;62.35;41.20;;;16.80;99.90;;;;;;5092459;28;20044;-75
2022/05/19 04:10:23;;;;;;;60.58;43.05;;;16.90;99.90;;;;;;5069066;28;20083;-75
2022/05/19 04:12:49;;;;;;;60.38;39.97;;;16.90;99.90;;;;;;5080824;28;20115;-75
2022/05/19 04:15:15;;;;;;;64.10;43.85;;;16.90;99.90;;;;;;5074363;28;20139;-73
2022/05/19 04:17:40;;;;;;;61.13;42.92;;;17.00;99.90;;;;;;5089613;28;20040;-75
2022/05/19 04:20:09;;;;;;;61.17;42.80;;;17.00;99.90;;;;;;5063082;28;20102;-75
2022/05/19 04:22:35;;;;;;;67.90;47.97;;;17.00;99.90;;;;;;5071778;28;20036;-75
2022/05/19 04:25:05;;;;;;;64.95;45.75;;;17.00;99.90;;;;;;5090345;28;20064;-75
2022/05/19 04:27:31;;;;;;;66.80;42.60;;;17.00;99.90;;;;;;5031180;28;20041;-76
2022/05/19 04:29:57;;;;;;;59.63;43.83;;;17.10;99.90;;;;;;5050011;28;20619;-75
2022/05/19 04:32:23;;;;;;;60.25;42.92;;;17.20;99.90;;;;;;5072465;28;20500;-76
2022/05/19 04:34:49;;;;;;;64.25;43.83;;;17.10;99.90;;;;;;5090095;28;20055;-76
2022/05/19 04:37:14;;;;;;;59.92;42.53;;;17.10;99.90;;;;;;5060501;28;20375;-76
2022/05/19 04:39:40;;;;;;;65.15;45.00;;;17.20;99.90;;;;;;5071746;28;20100;-78
2022/05/19 04:42:08;;;;;;;60.20;40.78;;;17.20;99.90;;;;;;5063544;28;20557;-77
2022/05/19 04:44:34;;;;;;;58.40;43.15;;;17.20;99.90;;;;;;5091106;28;20051;-77
2022/05/19 04:46:59;;;;;;;55.65;42.70;;;17.20;99.90;;;;;;5072726;28;20593;-76
2022/05/19 04:49:28;;;;;;;55.00;39.47;;;17.30;99.90;;;;;;5081397;28;20127;-76
2022/05/19 04:51:54;;;;;;;56.40;40.42;;;17.30;99.90;;;;;;5084694;28;20063;-76
2022/05/19 04:54:19;;;;;;;56.58;40.38;;;17.30;99.90;;;;;;5089880;28;20108;-76
2022/05/19 04:56:45;;;;;;;52.53;40.22;;;17.50;99.90;;;;;;5091438;28;20055;-77
2022/05/19 04:59:14;;;;;;;55.20;37.22;;;17.40;99.90;;;;;;5088757;28;20048;-77
2022/05/19 05:01:41;;;;;;;54.92;37.83;;;17.40;99.90;;;;;;5090583;28;20399;-77
2022/05/19 05:04:07;;;;;;;54.63;38.00;;;17.50;99.90;;;;;;5069194;28;20092;-77
2022/05/19 05:06:33;;;;;;;57.92;39.10;;;17.50;99.90;;;;;;5072551;28;20141;-78
2022/05/19 05:08:59;;;;;;;51.28;38.08;;;17.60;99.90;;;;;;5087556;28;20071;-76
2022/05/19 05:11:25;;;;;;;53.50;38.63;;;17.60;99.90;;;;;;5080683;28;20072;-76
2022/05/19 05:13:50;;;;;;;47.03;37.22;;;17.60;99.90;;;;;;5055553;28;20123;-76
2022/05/19 05:16:19;;;;;;;51.42;36.83;;;17.70;99.90;;;;;;5078289;28;20043;-75
2022/05/19 05:18:44;;;;;;;58.80;37.90;;;17.70;99.90;;;;;;5067421;28;20085;-79
2022/05/19 05:21:13;;;;;;;51.50;37.85;;;17.70;99.90;;;;;;5069609;28;20128;-76
2022/05/19 05:23:40;;;;;;;63.90;40.50;;;17.80;99.90;;;;;;5070382;28;20114;-75
2022/05/19 05:26:06;;;;;;;62.38;40.42;;;17.80;99.90;;;;;;5089194;28;20073;-76
2022/05/19 05:28:33;;;;;;;60.58;39.22;;;17.90;99.90;;;;;;5072689;28;20082;-76
2022/05/19 05:30:59;;;;;;;48.15;38.80;;;17.90;99.90;;;;;;5082875;28;20484;-76
2022/05/19 05:33:25;;;;;;;50.72;38.22;;;17.90;99.90;;;;;;5072398;28;20048;-75
2022/05/19 05:35:50;;;;;;;55.47;38.05;;;18.10;99.90;;;;;;5062942;28;20049;-77
2022/05/19 05:38:17;;;;;;;50.53;38.33;;;18.10;99.90;;;;;;5085764;28;20055;-76
2022/05/19 05:40:43;;;;;;;54.65;38.30;;;18.10;99.90;;;;;;5070231;28;20536;-75
2022/05/19 05:43:12;;;;;;;48.78;35.90;;;18.20;99.90;;;;;;5048478;28;20119;-76
2022/05/19 05:45:38;;;;;;;47.30;35.58;;;18.20;99.90;;;;;;5066339;28;20456;-76
2022/05/19 05:48:04;;;;;;;50.78;35.92;;;18.40;99.90;;;;;;5070018;28;20045;-76
2022/05/19 05:50:30;;;;;;;49.47;33.40;;;18.40;99.90;;;;;;5085349;28;20070;-76
2022/05/19 05:52:56;;;;;;;42.00;32.63;;;18.50;99.90;;;;;;5072507;28;20385;-76
2022/05/19 05:55:21;;;;;;;48.60;33.95;;;18.60;99.90;;;;;;5056418;28;20060;-75
2022/05/19 05:57:47;;;;;;;41.75;30.00;;;18.70;99.90;;;;;;5085942;28;20111;-76
2022/05/19 06:00:13;;;;;;;38.60;29.42;;;18.80;99.90;;;;;;5066089;28;20081;-76
2022/05/19 06:02:40;;;;;;;48.50;28.95;;;18.90;99.90;;;;;;5060354;28;20123;-76
2022/05/19 06:05:06;;;;;;;38.10;29.48;;;18.90;99.90;;;;;;5068495;28;20488;-76
2022/05/19 06:07:32;;;;;;;39.33;27.45;;;19.10;99.90;;;;;;5064548;28;20090;-76
2022/05/19 06:09:58;;;;;;;50.92;26.33;;;19.10;99.90;;;;;;5051903;28;20510;-76
2022/05/19 06:12:25;;;;;;;34.45;26.10;;;19.20;99.90;;;;;;5072595;28;20071;-76
2022/05/19 06:14:53;;;;;;;32.10;25.35;;;19.30;99.90;;;;;;5062818;28;20127;-76
2022/05/19 06:17:19;;;;;;;30.75;25.90;;;19.30;99.90;;;;;;5090749;28;20086;-76
2022/05/19 06:19:45;;;;;;;38.85;25.65;;;19.40;99.90;;;;;;5085926;28;20411;-77
2022/05/19 06:22:11;;;;;;;39.53;24.60;;;19.50;99.90;;;;;;5069090;28;20044;-77
2022/05/19 06:24:36;;;;;;;35.92;25.98;;;19.50;99.90;;;;;;5061497;28;20468;-77
2022/05/19 06:27:02;;;;;;;33.70;23.55;;;19.60;99.90;;;;;;5058081;28;20113;-77
2022/05/19 06:29:31;;;;;;;31.50;23.58;;;19.70;99.90;;;;;;5077895;28;20082;-76
2022/05/19 06:31:57;;;;;;;28.00;21.08;;;19.70;99.90;;;;;;5071607;28;20040;-76
2022/05/19 06:34:23;;;;;;;28.83;22.30;;;19.70;99.90;;;;;;5088162;28;20055;-76
2022/05/19 06:36:48;;;;;;;27.65;20.63;;;19.80;99.90;;;;;;5072023;28;20090;-76
2022/05/19 06:39:19;;;;;;;26.33;21.55;;;19.80;99.90;;;;;;5074038;28;20116;-76
2022/05/19 06:42:00;;;;;;;27.17;20.77;;;19.80;99.90;;;;;;5052098;28;20120;-76
2022/05/19 06:44:33;;;;;;;29.45;21.92;;;20.00;99.90;;;;;;5082653;28;20314;-76
2022/05/19 06:46:59;;;;;;;27.33;21.45;;;20.00;99.90;;;;;;5040612;28;20036;-76
2022/05/19 06:49:25;;;;;;;27.08;20.30;;;20.00;99.90;;;;;;5074756;28;20341;-75
2022/05/19 06:51:51;;;;;;;30.77;22.00;;;20.10;99.90;;;;;;5063596;28;20392;-76
2022/05/19 06:54:17;;;;;;;30.55;22.50;;;20.10;99.90;;;;;;5058864;28;20599;-77
2022/05/19 06:56:46;;;;;;;28.20;20.65;;;20.10;99.90;;;;;;5065173;28;20086;-76
2022/05/19 06:59:11;;;;;;;25.05;18.38;;;20.00;99.90;;;;;;5063480;28;20044;-75
2022/05/19 07:01:37;;;;;;;24.40;18.08;;;19.90;99.90;;;;;;5066309;28;20384;-75
2022/05/19 07:04:03;;;;;;;24.52;16.90;;;19.90;99.90;;;;;;5074288;28;20384;-75
2022/05/19 07:06:29;;;;;;;25.52;17.05;;;19.80;99.90;;;;;;5060202;28;20722;-76
2022/05/19 07:08:55;;;;;;;23.77;15.70;;;19.90;99.90;;;;;;5046402;28;20036;-76
2022/05/19 07:11:27;;;;;;;23.27;16.50;;;19.80;99.90;;;;;;5071978;28;20041;-77
2022/05/19 07:14:19;;;;;;;24.15;16.90;;;19.70;99.90;;;;;;5071228;28;20036;-76
2022/05/19 07:16:48;;;;;;;26.50;16.83;;;19.70;99.90;;;;;;5073206;28;20583;-76
2022/05/19 07:21:58;;;;;;;26.00;19.60;;;19.70;99.90;;;;;;5053377;28;20049;-75
2022/05/19 07:24:24;;;;;;;28.27;20.58;;;19.70;99.90;;;;;;5066200;28;20038;-75
2022/05/19 07:26:54;;;;;;;25.17;18.85;;;19.60;99.90;;;;;;5064470;28;20511;-75
2022/05/19 07:29:20;;;;;;;30.23;21.05;;;19.60;99.90;;;;;;5070559;28;20523;-76
2022/05/19 07:31:47;;;;;;;25.65;19.45;;;19.70;99.90;;;;;;5061896;28;20040;-76
2022/05/19 07:34:14;;;;;;;25.85;20.38;;;19.60;99.90;;;;;;5034890;28;20048;-75
2022/05/19 07:36:40;;;;;;;31.67;22.15;;;19.50;99.90;;;;;;5027812;28;20049;-76
2022/05/19 07:39:07;;;;;;;37.75;21.65;;;19.50;99.90;;;;;;5048172;28;20032;-75
2022/05/19 07:41:33;;;;;;;27.92;21.35;;;19.50;99.90;;;;;;5071112;28;20085;-75
2022/05/19 07:43:59;;;;;;;35.58;22.42;;;19.50;99.90;;;;;;5055229;28;20391;-75
2022/05/19 07:46:27;;;;;;;33.55;21.00;;;19.50;99.90;;;;;;5074255;28;20135;-75
2022/05/19 07:48:54;;;;;;;28.33;19.35;;;19.30;99.90;;;;;;5049868;28;21592;-75
2022/05/19 07:51:25;;;;;;;29.30;18.42;;;19.40;99.90;;;;;;5068004;28;20039;-78
2022/05/19 07:53:51;;;;;;;24.38;13.77;;;19.40;99.90;;;;;;5055648;28;20408;-75
2022/05/19 07:56:17;;;;;;;22.88;12.57;;;19.40;99.90;;;;;;5044921;28;20049;-74
2022/05/19 07:58:46;;;;;;;20.80;11.05;;;19.50;99.90;;;;;;5062489;28;20479;-76
2022/05/19 08:01:16;;;;;;;22.80;11.40;;;19.50;99.90;;;;;;5066238;28;20146;-75
2022/05/19 08:03:42;;;;;;;20.17;11.30;;;19.50;99.90;;;;;;5066182;28;20090;-75
2022/05/19 08:06:10;;;;;;;20.95;8.32;;;19.60;99.90;;;;;;5067870;28;20072;-76
2022/05/19 08:08:39;;;;;;;15.65;8.32;;;19.50;99.90;;;;;;5065395;28;20063;-76
2022/05/19 08:11:05;;;;;;;16.67;8.48;;;19.60;99.90;;;;;;5066389;28;20070;-76
2022/05/19 08:16:15;;;;;;;15.25;7.82;;;19.60;99.90;;;;;;5050736;28;20704;-76
2022/05/19 08:18:41;;;;;;;13.18;7.93;;;19.70;99.90;;;;;;5050687;28;20094;-76
2022/05/19 08:21:11;;;;;;;11.73;6.93;;;19.70;99.90;;;;;;5048408;28;20048;-76
2022/05/19 08:23:42;;;;;;;13.95;6.45;;;19.80;99.90;;;;;;5066585;28;20098;-76
2022/05/19 08:26:08;;;;;;;18.48;7.05;;;19.80;99.90;;;;;;5061433;28;20514;-76
2022/05/19 08:28:39;;;;;;;16.45;6.60;;;19.80;99.90;;;;;;5047055;28;20124;-75
2022/05/19 08:31:11;;;;;;;14.38;5.85;;;19.80;99.90;;;;;;5068011;28;20104;-77
2022/05/19 08:33:39;;;;;;;11.85;6.57;;;19.80;99.90;;;;;;5050270;28;20076;-77
2022/05/19 08:36:07;;;;;;;12.88;6.10;;;19.80;99.90;;;;;;5050145;28;20060;-77
2022/05/19 08:38:32;;;;;;;13.27;6.22;;;19.80;99.90;;;;;;5048774;28;20044;-75
2022/05/19 08:41:08;;;;;;;15.13;6.53;;;19.80;99.90;;;;;;5069135;28;20352;-77
2022/05/19 08:43:45;;;;;;;10.93;6.53;;;19.80;99.90;;;;;;5060900;28;20036;-79
2022/05/19 08:46:19;;;;;;;11.30;6.72;;;19.80;99.90;;;;;;5069308;28;20584;-77
2022/05/19 08:48:46;;;;;;;13.95;6.57;;;19.90;99.90;;;;;;5046525;28;20118;-77
2022/05/19 08:51:13;;;;;;;13.35;6.22;;;19.80;99.90;;;;;;5048175;28;20476;-77
2022/05/19 08:53:42;;;;;;;10.30;5.95;;;20.00;99.90;;;;;;5063103;28;20045;-76
2022/05/19 08:56:25;;;;;;;12.73;6.28;;;20.10;99.90;;;;;;5058634;28;20067;-76
2022/05/19 08:59:05;;;;;;;12.43;6.30;;;20.10;99.90;;;;;;5055591;28;20101;-76
2022/05/19 09:01:43;;;;;;;11.90;5.57;;;20.20;99.90;;;;;;5064105;28;20041;-74
2022/05/19 09:04:18;;;;;;;10.23;5.70;;;20.30;99.90;;;;;;5074323;28;20045;-75
2022/05/19 09:09:52;;;;;;;10.52;6.43;;;20.40;99.90;;;;;;5091896;28;20233;-76
2022/05/19 09:12:22;;;;;;;15.07;6.60;;;20.40;99.90;;;;;;5074361;28;20249;-77
2022/05/19 09:14:48;;;;;;;12.13;6.22;;;20.50;99.90;;;;;;5067029;28;20037;-76
2022/05/19 09:17:14;;;;;;;14.95;5.90;;;20.50;99.90;;;;;;5039801;28;20091;-76
2022/05/19 09:19:51;;;;;;;16.08;6.30;;;20.60;99.90;;;;;;5047814;28;20056;-76
2022/05/19 09:22:26;;;;;;;10.60;6.18;;;20.70;99.90;;;;;;5069675;28;20040;-76
2022/05/19 09:24:53;;;;;;;10.05;5.75;;;20.80;99.90;;;;;;5075359;28;20037;-76
2022/05/19 09:27:22;;;;;;;9.13;6.10;;;20.80;99.90;;;;;;5041332;28;20122;-76
2022/05/19 09:29:51;;;;;;;13.02;6.43;;;20.90;99.90;;;;;;5074488;28;20041;-76
2022/05/19 09:32:37;;;;;;;14.07;6.05;;;20.90;99.90;;;;;;5073017;28;20438;-75
2022/05/19 09:35:08;;;;;;;14.93;7.70;;;21.00;99.90;;;;;;5085782;28;20036;-75
2022/05/19 09:37:44;;;;;;;12.52;7.13;;;21.10;99.90;;;;;;5069301;28;20076;-74
2022/05/19 09:40:12;;;;;;;12.55;5.97;;;21.20;99.90;;;;;;5072431;28;20141;-75
2022/05/19 09:42:58;;;;;;;8.52;6.18;;;21.30;99.90;;;;;;5083623;28;20072;-75
2022/05/19 09:45:27;;;;;;;11.02;6.85;;;21.30;99.90;;;;;;5090131;28;20070;-75
2022/05/19 09:47:57;;;;;;;10.27;7.05;;;21.50;99.90;;;;;;5086890;28;20127;-76
2022/05/19 09:50:26;;;;;;;12.90;6.80;;;21.50;99.90;;;;;;5070799;28;20078;-77
2022/05/19 09:53:00;;;;;;;11.35;7.07;;;21.50;99.90;;;;;;5076049;28;20086;-77
2022/05/19 09:55:27;;;;;;;16.38;8.32;;;21.60;99.90;;;;;;5089355;28;20372;-76
2022/05/19 09:58:02;;;;;;;12.20;7.45;;;21.70;99.90;;;;;;5082953;28;20036;-76
2022/05/19 10:00:40;;;;;;;12.45;7.72;;;21.80;99.90;;;;;;5071518;28;20081;-76
2022/05/19 10:03:12;;;;;;;14.98;8.48;;;21.80;99.90;;;;;;5068615;28;20055;-77
2022/05/19 10:05:46;;;;;;;13.18;8.35;;;21.90;99.90;;;;;;5091255;28;20128;-76
2022/05/19 10:08:16;;;;;;;17.38;10.18;;;22.00;99.90;;;;;;5087909;28;20044;-77
2022/05/19 10:11:03;;;;;;;13.70;7.70;;;22.00;99.90;;;;;;5090806;28;20514;-77
2022/05/19 10:13:45;;;;;;;10.07;6.43;;;22.10;99.90;;;;;;5083440;28;20483;-78
2022/05/19 10:16:46;;;;;;;13.52;6.88;;;22.20;99.90;;;;;;5072942;28;20107;-76
2022/05/19 10:19:24;;;;;;;11.77;6.45;;;22.20;99.90;;;;;;5083056;28;20049;-77
2022/05/19 10:22:02;;;;;;;11.43;7.13;;;22.30;99.90;;;;;;5088635;28;20048;-77
2022/05/19 10:24:54;;;;;;;12.15;7.80;;;22.30;99.90;;;;;;5063150;28;20047;-77
2022/05/19 10:31:35;;;;;;;14.10;9.27;;;22.50;99.90;;;;;;5066984;28;20044;-76
2022/05/19 10:34:22;;;;;;;13.45;8.32;;;22.60;99.90;;;;;;5054255;28;20052;-77
2022/05/19 10:36:54;;;;;;;11.85;8.35;;;22.70;99.90;;;;;;5067322;28;20052;-77
2022/05/19 10:39:50;;;;;;;12.45;7.63;;;22.80;99.90;;;;;;5060696;28;20127;-78
2022/05/19 10:42:25;;;;;;;10.50;7.22;;;22.90;99.90;;;;;;5068035;28;20055;-77
2022/05/19 10:44:56;;;;;;;14.52;7.32;;;23.00;99.90;;;;;;5069861;28;20233;-78
2022/05/19 10:47:39;;;;;;;11.88;8.38;;;23.10;99.90;;;;;;5057314;28;20051;-78
2022/05/19 10:50:13;;;;;;;12.00;8.02;;;23.20;99.90;;;;;;5059011;28;20139;-78
2022/05/19 10:53:06;;;;;;;12.75;6.78;;;23.30;99.90;;;;;;5038723;28;20073;-79
2022/05/19 10:55:38;;;;;;;7.75;5.10;;;23.30;99.90;;;;;;5078547;28;20209;-79
2022/05/19 10:58:38;;;;;;;8.95;5.55;;;23.30;99.90;;;;;;5082314;28;20484;-79
2022/05/19 11:01:50;;;;;;;8.95;5.63;;;23.40;99.90;;;;;;5079294;28;20415;-79
2022/05/19 11:04:52;;;;;;;7.65;6.03;;;23.40;99.90;;;;;;5070182;28;20067;-79
2022/05/19 11:07:27;;;;;;;8.80;5.15;;;23.40;99.90;;;;;;5071085;28;20048;-79
2022/05/19 11:09:57;;;;;;;7.22;4.55;;;23.40;99.90;;;;;;5088778;28;20549;-79
2022/05/19 11:12:55;;;;;;;9.45;5.90;;;23.50;99.90;;;;;;5088879;28;20044;-79
2022/05/19 11:15:37;;;;;;;9.68;5.75;;;23.50;99.90;;;;;;5056958;28;20944;-78
2022/05/19 11:18:12;;;;;;;8.90;5.00;;;23.60;99.90;;;;;;5078172;28;20071;-77
2022/05/19 11:21:06;;;;;;;10.82;5.38;;;23.70;99.90;;;;;;5053229;28;20044;-78
2022/05/19 11:24:02;;;;;;;9.73;5.15;;;23.80;99.90;;;;;;5054552;28;20061;-83
2022/05/19 11:26:35;;;;;;;9.85;4.88;;;23.90;99.90;;;;;;5076033;28;20035;-79
2022/05/19 11:29:11;;;;;;;8.77;4.50;;;24.00;99.90;;;;;;5053451;28;20546;-79
2022/05/19 11:32:03;;;;;;;9.35;5.70;;;24.00;99.90;;;;;;5073641;28;20058;-78
2022/05/19 11:34:43;;;;;;;8.88;6.53;;;24.20;99.90;;;;;;5085766;28;20039;-77
2022/05/19 11:37:37;;;;;;;8.63;6.20;;;24.20;99.90;;;;;;5075122;28;20048;-79
2022/05/19 11:40:15;;;;;;;9.32;6.35;;;24.30;99.90;;;;;;5037971;28;20052;-79
2022/05/19 11:42:50;;;;;;;10.05;7.13;;;24.30;99.90;;;;;;5073529;28;20047;-78
2022/05/19 11:45:41;;;;;;;10.23;7.30;;;24.30;99.90;;;;;;5069760;28;20052;-78
2022/05/19 11:57:18;;;;;;;11.10;6.22;;;24.50;99.90;;;;;;5097569;28;20350;-80
2022/05/19 11:59:47;;;;;;;9.80;6.13;;;24.40;99.90;;;;;;5087473;28;20048;-79
2022/05/19 12:02:17;;;;;;;11.98;7.03;;;24.50;99.90;;;;;;5087592;28;20109;-81
2022/05/19 12:04:44;;;;;;;14.13;7.30;;;24.40;99.90;;;;;;5100320;28;20047;-79
2022/05/19 12:07:09;;;;;;;12.57;7.85;;;24.30;99.90;;;;;;5078696;28;20070;-79
2022/05/19 12:09:46;;;;;;;14.70;9.63;;;24.40;99.90;;;;;;5087792;28;20043;-79
2022/05/19 12:12:26;;;;;;;11.98;9.57;;;24.50;99.90;;;;;;5095336;28;20464;-79
2022/05/19 12:15:20;;;;;;;14.15;10.00;;;24.40;99.90;;;;;;5068627;28;20063;-79
2022/05/19 12:17:57;;;;;;;11.23;9.63;;;24.40;99.90;;;;;;5101929;28;20037;-78
2022/05/19 12:20:47;;;;;;;20.48;12.63;;;24.30;99.90;;;;;;5099322;28;20526;-77
2022/05/19 12:23:33;;;;;;;19.20;14.13;;;24.30;99.90;;;;;;5063203;28;20036;-78
2022/05/19 12:26:16;;;;;;;19.17;13.63;;;24.30;99.90;;;;;;5073975;28;20365;-78
2022/05/19 12:28:45;;;;;;;16.02;12.52;;;24.20;99.90;;;;;;5072453;28;20044;-78
2022/05/19 12:34:05;;;;;;;14.13;12.55;;;24.10;99.90;;;;;;5074788;28;20065;-78
2022/05/19 12:36:35;;;;;;;16.40;12.07;;;24.10;99.90;;;;;;5090912;28;20090;-78
2022/05/19 12:39:26;;;;;;;16.95;11.95;;;24.00;99.90;;;;;;5090200;28;20051;-78
2022/05/19 12:41:55;;;;;;;15.82;11.70;;;24.00;99.90;;;;;;5076169;28;20039;-80
2022/05/19 12:44:45;;;;;;;15.50;12.18;;;23.90;99.90;;;;;;5078243;28;20126;-78
2022/05/19 12:47:20;;;;;;;15.90;13.80;;;23.90;99.90;;;;;;5113097;28;20363;-77
2022/05/19 12:50:08;;;;;;;15.43;11.85;;;23.80;99.90;;;;;;5070530;28;20054;-76
2022/05/19 12:53:11;;;;;;;16.40;11.80;;;23.80;99.90;;;;;;5076679;28;20052;-77
2022/05/19 12:55:36;;;;;;;13.27;9.15;;;23.70;99.90;;;;;;5054641;28;20540;-77
2022/05/19 12:58:33;;;;;;;11.85;9.02;;;23.70;99.90;;;;;;5052146;28;20049;-77
2022/05/19 13:01:26;;;;;;;15.40;10.48;;;23.60;99.90;;;;;;5070061;28;20494;-78
2022/05/19 13:04:03;;;;;;;12.23;9.75;;;23.50;99.90;;;;;;5070232;28;20076;-77
2022/05/19 13:06:45;;;;;;;14.73;8.90;;;23.50;99.90;;;;;;5053729;28;20087;-76
2022/05/19 13:09:17;;;;;;;13.30;6.82;;;23.40;99.90;;;;;;5070467;28;20136;-75
2022/05/19 13:11:53;;;;;;;8.45;5.05;;;23.20;99.90;;;;;;5051832;28;20136;-76
2022/05/19 13:14:25;;;;;;;6.18;3.25;;;23.00;99.90;;;;;;5050395;28;20056;-78
2022/05/19 13:16:53;;;;;;;9.98;4.47;;;22.80;99.90;;;;;;5067953;28;20044;-77
2022/05/19 13:19:26;;;;;;;8.68;5.07;;;22.60;99.90;;;;;;5069309;28;20052;-76
2022/05/19 13:22:03;;;;;;;8.35;4.80;;;22.30;99.90;;;;;;5068945;28;20056;-78
2022/05/19 13:24:34;;;;;;;13.23;5.18;;;22.20;99.90;;;;;;5059432;28;20033;-76